METAR stanice u blizini

 

LYNI - Nis, Yugoslavia
Distance from station: JZ 40km
Ažurirano: 13/04/2024 11:00
Vedro
Vedro
 Pravac vetra ZSZ
Vetar: ZSZ 11 km/h
Temperatura: 21°C
Tačka rose: 14°C
Vlažnost: 64%
Pritisak: 1027 hPa
Pregled: Vedro
Vidljivost: greater than 10 km
2024/04/13 09:00 LYNI 130900Z 29006KT 250V340 CAVOK 21/14 Q1027 NOSIG
LYKV - Kraljevo, Yugoslavia
Distance from station: ZSZ 136km
Ažurirano: 13/04/2024 11:00
Few Clouds
Few Clouds
 Pravac vetra varies
Vetar: varies 6 km/h
Temperatura: 22°C
Tačka rose: 12°C
Vlažnost: 53%
Pritisak: 1027 hPa
Oblaci: Few Clouds
Vidljivost: 10 km
Cloud details: Few Clouds 1433 m
2024/04/13 09:00 LYKV 130900Z VRB03KT 9999 FEW047 22/12 Q1027 NOSIG
LBSF - Sofia (observato, Bulgaria
Distance from station: JI 138km
Ažurirano: 13/04/2024 11:00
Vedro
Vedro
 Pravac vetra ZSZ
Vetar: ZSZ 17 km/h
Temperatura: 21°C
Tačka rose: 10°C
Vlažnost: 50%
Pritisak: 1026 hPa
Pregled: Vedro
Vidljivost: greater than 10 km
2024/04/13 09:00 LBSF 130900Z 30009KT 270V330 CAVOK 21/10 Q1026 NOSIG
 
BKPR - Prishtina, Yugoslavia
Distance from station: JZ 147km
Ažurirano: 13/04/2024 11:30
Few Clouds
Few Clouds
 Pravac vetra SSI
Vetar: SSI 9 km/h
Temperatura: 20°C
Tačka rose: 11°C
Vlažnost: 56%
Pritisak: 1028 hPa
Oblaci: Few Clouds
Vidljivost: 10 km
Cloud details: Few Clouds 1219 m
2024/04/13 09:30 BKPR 130930Z 03005KT 010V080 9999 FEW040 20/11 Q1028 NOSIG
LRCV - Craiova, Romania
Distance from station: SI 154km
Ažurirano: 13/04/2024 11:00
Vedro
Vedro
 Pravac vetra JJI
Vetar: JJI 4 km/h
Temperatura: 22°C
Tačka rose: 9°C
Vlažnost: 44%
Pritisak: 1025 hPa
Pregled: Vedro
Vidljivost: greater than 10 km
2024/04/13 09:00 LRCV 130900Z 15002KT CAVOK 22/09 Q1025
LWSK - Skopje/Petrovac, Macedonia
Distance from station: JJZ 185km
Ažurirano: 13/04/2024 11:20
Vedro
Vedro
 Pravac vetra varies
Vetar: varies 4 km/h
Temperatura: 25°C
Tačka rose: 14°C
Vlažnost: 51%
Pritisak: 1026 hPa
Pregled: Vedro
Vidljivost: greater than 10 km
2024/04/13 09:20 LWSK 130920Z VRB02KT CAVOK 25/14 Q1026 NOSIG
 
LYVR - Vrsac, Yugoslavia
Distance from station: SSZ 189km
Ažurirano: 13/04/2024 11:00
Vedro
Vedro
 Pravac vetra SZ
Vetar: SZ 9 km/h
Temperatura: 22°C
Tačka rose: 12°C
Vlažnost: 53%
Pritisak: 1027 hPa
Pregled: Vedro
Vidljivost: greater than 10 km
2024/04/13 09:00 LYVR 130900Z AUTO 31005KT 240V010 CAVOK 22/12 Q1027
LYUZ - Uzice-Ponikve, Yugoslavia
Distance from station: Z 207km
Ažurirano: 04/11/2021 00:30
NOT Current

 Pravac vetra varies
Vetar: varies 9 km/h
Temperatura: 14°C
Tačka rose: 7°C
Vlažnost: 63%
Pritisak: 1010 hPa
Vidljivost: 10 km
2021/11/03 23:30 LYUZ 032330Z AUTO VRB05KT 9999 ////// 14/07 Q1010
LYBE - Belgrade/Surcin, Yugoslavia
Distance from station: SZ 209km
Ažurirano: 13/04/2024 11:00
Vedro
Vedro
 Pravac vetra ZJZ
Vetar: ZJZ 11 km/h
Temperatura: 20°C
Tačka rose: 12°C
Vlažnost: 60%
Pritisak: 1028 hPa
Pregled: Vedro
Vidljivost: greater than 10 km
2024/04/13 09:00 LYBE 130900Z 24006KT 210V270 CAVOK 20/12 Q1028 NOSIG
 
LYBT - Batajnica, Yugoslavia
Distance from station: SZ 219km
Ažurirano: 13/04/2024 11:00
Vedro
Vedro
 Pravac vetra ZJZ
Vetar: ZJZ 6 km/h
Temperatura: 21°C
Tačka rose: 12°C
Vlažnost: 57%
Pritisak: 1028 hPa
Pregled: Vedro
Vidljivost: greater than 10 km
2024/04/13 09:00 LYBT 130900Z 25003KT 170V320 CAVOK 21/12 Q1028 NOSIG
LRTR - Timisoara/Giarma, Romania
Distance from station: SSZ 260km
Ažurirano: 13/04/2024 11:00
Vedro
Vedro
 Pravac vetra varies
Vetar: varies 7 km/h
Temperatura: 21°C
Tačka rose: 6°C
Vlažnost: 38%
Pritisak: 1027 hPa
Pregled: Vedro
Vidljivost: greater than 10 km
2024/04/13 09:00 LRTR 130900Z VRB04KT CAVOK 21/06 Q1027 NOSIG
LBPD - Plovdiv, Bulgaria
Distance from station: JI 263km
Ažurirano: 13/04/2024 11:00
Vedro
Vedro
 Pravac vetra SZ
Vetar: SZ 9 km/h
Temperatura: 23°C
Tačka rose: 12°C
Vlažnost: 50%
Pritisak: 1024 hPa
Oblaci: Vedro
Vidljivost: 10 km
2024/04/13 09:00 LBPD 130900Z AUTO 32005KT 270V020 9999 NCD 23/12 Q1024 NOSIG
 
LYPG - Podgorica(Titogr, Yugoslavia
Distance from station: ZJZ 278km
Ažurirano: 13/04/2024 11:00
Vedro
Vedro
 Pravac vetra varies
Vetar: varies 4 km/h
Temperatura: 25°C
Tačka rose: 13°C
Vlažnost: 47%
Pritisak: 1025 hPa
Pregled: Vedro
Vidljivost: greater than 10 km
2024/04/13 09:00 LYPG 130900Z VRB02KT CAVOK 25/13 Q1025 NOSIG
LBGO - Gorna Orechovist, Bulgaria
Distance from station: I 285km
Ažurirano: 13/04/2024 11:00
Vedro
Vedro
 Pravac vetra ZSZ
Vetar: ZSZ 11 km/h
Temperatura: 21°C
Tačka rose: 14°C
Vlažnost: 64%
Pritisak: 1024 hPa
Oblaci: Vedro
Vidljivost: 10 km
2024/04/13 09:00 LBGO 130900Z AUTO 30006KT 270V350 9999 NCD 21/14 Q1024 NOSIG
LRSB - Sibiu/Turnisor, Romania
Distance from station: SSI 286km
Ažurirano: 13/04/2024 11:00
Few Clouds
Few Clouds
 Pravac vetra SZ
Vetar: SZ 13 km/h
Temperatura: 21°C
Tačka rose: 6°C
Vlažnost: 38%
Pritisak: 1026 hPa
Oblaci: Few Clouds
Vidljivost: 10 km
Cloud details: Few Clouds 2438 m
2024/04/13 09:00 LRSB 130900Z 32007KT 270V010 9999 FEW080 21/06 Q1026
 
LWOH - Ohrid, Macedonia
Distance from station: JJZ 292km
Ažurirano: 13/04/2024 11:20
Few Clouds
Few Clouds
 Pravac vetra JJI
Vetar: JJI 15 km/h
Temperatura: 17°C
Tačka rose: 11°C
Vlažnost: 68%
Pritisak: 1026 hPa
Oblaci: Few Clouds
Vidljivost: 10 km
Cloud details: Few Clouds 1494 m
2024/04/13 09:20 LWOH 130920Z 16008KT 9999 FEW049 17/11 Q1026
LQTZ - Tuzla, Yugoslavia
Distance from station: ZSZ 298km
Ažurirano: 13/04/2024 11:00
Few Clouds
Few Clouds
 Pravac vetra Z
Vetar: Z 9 km/h
Temperatura: 19°C
Tačka rose: 12°C
Vlažnost: 64%
Pritisak: 1029 hPa
Oblaci: Few Clouds
Vidljivost: 10 km
Cloud details: Few Clouds 1067 m
2024/04/13 09:00 LQTZ 130900Z 26005KT 210V280 9999 FEW035 19/12 Q1029
LRAR - Arad, Romania
Distance from station: SSZ 301km
Ažurirano: 13/04/2024 11:00
Few Clouds
Few Clouds
 Pravac vetra calm
Vetar: Tišina
Temperatura: 21°C
Tačka rose: 11°C
Vlažnost: 53%
Pritisak: 1027 hPa
Oblaci: Few Clouds
Vidljivost: 10 km
Cloud details: Few Clouds 853 m
2024/04/13 09:00 LRAR 130900Z 00000KT 9999 FEW028 21/11 Q1027
 
LYTV - Tivat, Yugoslavia
Distance from station: ZJZ 315km
Ažurirano: 13/04/2024 11:00
Vedro
Vedro
 Pravac vetra SZ
Vetar: SZ 7 km/h
Temperatura: 24°C
Tačka rose: 14°C
Vlažnost: 54%
Pritisak: 1025 hPa
Pregled: Vedro
Vidljivost: greater than 10 km
2024/04/13 09:00 LYTV 130900Z 31004KT 270V350 CAVOK 24/14 Q1025 NOSIG
LATI - Tirana, Albania
Distance from station: JZ 316km
Ažurirano: 13/04/2024 11:20
Vedro
Vedro
 Pravac vetra varies
Vetar: varies 6 km/h
Temperatura: 24°C
Tačka rose: 13°C
Vlažnost: 50%
Pritisak: 1024 hPa
Pregled: Vedro
Vidljivost: greater than 10 km
2024/04/13 09:20 LATI 130920Z VRB03KT CAVOK 24/13 Q1024 NOSIG
LQBK - Banja Luka, Yugoslavia
Distance from station: SZ 426km
Ažurirano: 13/04/2024 11:00
Vedro
Vedro
 Pravac vetra varies
Vetar: varies 2 km/h
Temperatura: 20°C
Tačka rose: 10°C
Vlažnost: 53%
Pritisak: 1029 hPa
Pregled: Vedro
Vidljivost: greater than 10 km
2024/04/13 09:00 LQBK 130900Z VRB01KT CAVOK 20/10 Q1029 NOSIG
 
LDOS - Osijek, Croatia
Distance from station: SSZ 360km
Ažurirano: 13/04/2024 11:00
Vedro
Vedro
 Pravac vetra ZSZ
Vetar: ZSZ 13 km/h
Temperatura: 22°C
Tačka rose: 9°C
Vlažnost: 44%
Pritisak: 1028 hPa
Pregled: Vedro
Vidljivost: greater than 10 km
2024/04/13 09:00 LDOS 130900Z 30007KT 270V330 CAVOK 22/09 Q1028
LDDU - Dubrovnik-Cilipi, Croatia
Distance from station: JZ 352km
Ažurirano: 13/04/2024 11:00
Vedro
Vedro
 Pravac vetra JZ
Vetar: JZ 13 km/h
Temperatura: 24°C
Tačka rose: 10°C
Vlažnost: 41%
Pritisak: 1025 hPa
Pregled: Vedro
Vidljivost: greater than 10 km
2024/04/13 09:00 LDDU 130900Z 22007KT 190V250 CAVOK 24/10 Q1025 BECMG 29008KT
LQMO - Mostar Airport, Bosnia-Herzegovina
Distance from station: Z 359km
Ažurirano: 13/04/2024 11:00
Vedro
Vedro
 Pravac vetra I
Vetar: I 6 km/h
Temperatura: 25°C
Tačka rose: 11°C
Vlažnost: 42%
Pritisak: 1024 hPa
Pregled: Vedro
Vidljivost: greater than 10 km
2024/04/13 09:00 LQMO 130900Z 08003KT 010V120 CAVOK 25/11 Q1024
 
LQSA - Sarajevo/Butmir, Yugoslavia
Distance from station: Z 311km
Ažurirano: 13/04/2024 11:00
Few Clouds
Few Clouds
 Pravac vetra Z
Vetar: Z 7 km/h
Temperatura: 17°C
Tačka rose: 12°C
Vlažnost: 73%
Pritisak: 1029 hPa
Oblaci: Few Clouds
Vidljivost: 10 km
Cloud details: Few Clouds 1219 m
2024/04/13 09:00 LQSA 130900Z 26004KT 210V010 9999 FEW040 17/12 Q1029 NOSIG
LDSP - Split/Kastel Sta, Croatia
Distance from station: Z 468km
Ažurirano: 13/04/2024 11:00
Vedro
Vedro
 Pravac vetra JI
Vetar: JI 6 km/h
Temperatura: 26°C
Tačka rose: 10°C
Vlažnost: 37%
Pritisak: 1025 hPa
Pregled: Vedro
Vidljivost: greater than 10 km
2024/04/13 09:00 LDSP 130900Z 13003KT 020V180 CAVOK 26/10 Q1025 NOSIG
LDZD - Zadar/Zemunik, Croatia
Distance from station: ZSZ 567km
Ažurirano: 13/04/2024 11:00
Vedro
Vedro
 Pravac vetra varies
Vetar: varies 6 km/h
Temperatura: 25°C
Tačka rose: 10°C
Vlažnost: 39%
Pritisak: 1026 hPa
Pregled: Vedro
Vidljivost: greater than 10 km
2024/04/13 09:00 LDZD 130900Z VRB03KT CAVOK 25/10 Q1026 BECMG 31008KT
 
LDZA - Zagreb/Pleso, Croatia
Distance from station: SZ 555km
Ažurirano: 13/04/2024 11:00
Vedro
Vedro
 Pravac vetra varies
Vetar: varies 6 km/h
Temperatura: 21°C
Tačka rose: 12°C
Vlažnost: 57%
Pritisak: 1029 hPa
Pregled: Vedro
Vidljivost: greater than 10 km
2024/04/13 09:00 LDZA 130900Z VRB03KT CAVOK 21/12 Q1029 NOSIG
LJCE - Cerklje, Slovenia
Distance from station: SZ 680km
Ažurirano: 13/04/2024 11:00
Few Clouds
Few Clouds
 Pravac vetra ZJZ
Vetar: ZJZ 2 km/h
Temperatura: 20°C
Tačka rose: 12°C
Vlažnost: 60%
Pritisak: 1029 hPa
Oblaci: Few Clouds
Vidljivost: 10 km
Cloud details: Few Clouds 914 m
2024/04/13 09:00 LJCE 130900Z 24001KT 9999 FEW030 20/12 Q1029 RMK BLU
LJMB - Maribor, Slovenia
Distance from station: SZ 616km
Ažurirano: 13/04/2024 11:00
Delimično oblačno
Delimično oblačno
 Pravac vetra JJZ
Vetar: JJZ 6 km/h
Temperatura: 20°C
Tačka rose: 10°C
Vlažnost: 53%
Pritisak: 1029 hPa
Oblaci: Delimično oblačno
Vidljivost: 10 km
Cloud details: Few Clouds 975 m
Delimično oblačno 6401 m
2024/04/13 09:00 LJMB 130900Z 20003KT 130V250 9999 FEW032 SCT210 20/10 Q1029
 
LJLJ - Ljubljana/Brnik, Slovenia
Distance from station: SZ 671km
Ažurirano: 13/04/2024 11:00
Delimično oblačno
Delimično oblačno
 Pravac vetra varies
Vetar: varies 4 km/h
Temperatura: 19°C
Tačka rose: 13°C
Vlažnost: 68%
Pritisak: 1029 hPa
Oblaci: Delimično oblačno
Vidljivost: 10 km
Cloud details: Few Clouds 1524 m
Delimično oblačno 7620 m
2024/04/13 09:00 LJLJ 130900Z VRB02KT 9999 FEW050 SCT250 19/13 Q1029 NOSIG
LDRI - Rijeka, Croatia
Distance from station: SZ 650km
Ažurirano: 13/04/2024 11:00
Vedro
Vedro
 Pravac vetra varies
Vetar: varies 4 km/h
Temperatura: 25°C
Tačka rose: 9°C
Vlažnost: 36%
Pritisak: 1027 hPa
Pregled: Vedro
Vidljivost: greater than 10 km
2024/04/13 09:00 LDRI 130900Z VRB02KT CAVOK 25/09 Q1027
LDPL - Pula, Croatia
Distance from station: ZSZ 686km
Ažurirano: 13/04/2024 11:00
Vedro
Vedro
 Pravac vetra ISI
Vetar: ISI 20 km/h
Temperatura: 24°C
Tačka rose: 10°C
Vlažnost: 41%
Pritisak: 1027 hPa
Pregled: Vedro
Vidljivost: greater than 10 km
2024/04/13 09:00 LDPL 130900Z 07011KT CAVOK 24/10 Q1027 NOSIG
 
LJPZ - Portorož, Slovenia
Distance from station: ZSZ 720km
Ažurirano: 13/04/2024 11:00
Vedro
Vedro
 Pravac vetra ZSZ
Vetar: ZSZ 6 km/h
Temperatura: 22°C
Tačka rose: 11°C
Vlažnost: 50%
Pritisak: 1027 hPa
Pregled: Vedro
Vidljivost: greater than 10 km
2024/04/13 09:00 LJPZ 130900Z 29003KT 260V330 CAVOK 22/11 Q1027